Time;durP1;ratioP1;P1;durP2;ratioP2;P2;SDS_P1;SDS_P2;PMS_P1;PMS_P2;Temp;Humidity;BMP_temperature;BMP_pressure;BME280_temperature;BME280_humidity;BME280_pressure;Samples;Min_cycle;Max_cycle;Signal;HPM_P1;HPM_P2
2023/10/31 00:01:27;;;;;;;16.13;7.68;;;7.30;99.90;;;;;;5030131;28;20053;-61
2023/10/31 00:03:53;;;;;;;13.57;7.10;;;7.40;99.90;;;;;;5029744;28;20037;-60
2023/10/31 00:06:18;;;;;;;14.57;6.50;;;7.30;99.90;;;;;;5030000;28;20021;-62
2023/10/31 00:08:44;;;;;;;17.25;7.13;;;7.30;99.90;;;;;;5029978;28;20109;-62
2023/10/31 00:11:09;;;;;;;11.73;6.60;;;7.30;99.90;;;;;;5029946;28;20072;-61
2023/10/31 00:13:35;;;;;;;17.48;7.75;;;7.20;99.90;;;;;;5029472;28;20109;-60
2023/10/31 00:16:01;;;;;;;12.35;6.72;;;7.20;99.90;;;;;;5029706;28;20038;-61
2023/10/31 00:18:26;;;;;;;13.15;7.18;;;7.20;99.90;;;;;;5029525;28;20524;-60
2023/10/31 00:20:52;;;;;;;12.00;6.95;;;7.10;99.90;;;;;;5030132;28;20036;-60
2023/10/31 00:23:17;;;;;;;15.43;6.93;;;7.10;99.90;;;;;;5029418;28;20037;-61
2023/10/31 00:25:43;;;;;;;16.23;7.20;;;7.10;99.90;;;;;;5030323;28;20032;-61
2023/10/31 00:28:09;;;;;;;16.95;6.78;;;7.00;99.90;;;;;;5033080;28;20099;-62
2023/10/31 00:30:34;;;;;;;17.48;7.57;;;7.10;99.90;;;;;;5033112;28;20028;-62
2023/10/31 00:33:00;;;;;;;14.60;8.00;;;7.00;99.90;;;;;;5033050;28;20068;-62
2023/10/31 00:35:25;;;;;;;12.27;7.57;;;7.00;99.90;;;;;;5032972;28;20045;-61
2023/10/31 00:37:51;;;;;;;14.35;7.60;;;7.00;99.90;;;;;;5033187;28;20022;-63
2023/10/31 00:40:17;;;;;;;17.75;7.20;;;7.00;99.90;;;;;;5033176;28;20455;-62
2023/10/31 00:42:43;;;;;;;14.45;7.10;;;7.00;99.90;;;;;;5019321;28;20021;-60
2023/10/31 00:45:09;;;;;;;11.65;5.68;;;6.90;99.90;;;;;;5033088;28;20028;-60
2023/10/31 00:47:35;;;;;;;11.45;5.47;;;6.90;99.90;;;;;;5032921;28;20029;-61
2023/10/31 00:50:01;;;;;;;13.77;6.20;;;6.80;99.90;;;;;;5033041;28;20423;-61
2023/10/31 00:52:27;;;;;;;9.38;5.28;;;6.80;99.90;;;;;;5033002;28;20160;-61
2023/10/31 00:54:52;;;;;;;13.80;6.28;;;6.70;99.90;;;;;;5033213;28;20053;-61
2023/10/31 00:57:18;;;;;;;8.73;5.22;;;6.70;99.90;;;;;;5033058;28;20026;-61
2023/10/31 00:59:43;;;;;;;11.63;6.13;;;6.70;99.90;;;;;;5032997;28;20049;-61
2023/10/31 01:02:09;;;;;;;10.10;5.88;;;6.80;99.90;;;;;;5032689;28;20033;-61
2023/10/31 01:04:36;;;;;;;9.68;5.25;;;6.80;99.90;;;;;;5033079;28;20029;-61
2023/10/31 01:07:02;;;;;;;8.98;5.20;;;6.70;99.90;;;;;;5032958;28;20030;-61
2023/10/31 01:09:28;;;;;;;11.20;5.03;;;6.70;99.90;;;;;;5032610;28;20022;-60
2023/10/31 01:11:54;;;;;;;11.25;4.60;;;6.70;99.90;;;;;;5032884;28;20060;-60
2023/10/31 01:14:19;;;;;;;8.75;4.10;;;6.70;99.90;;;;;;5032067;28;20029;-60
2023/10/31 01:16:45;;;;;;;7.88;4.47;;;6.80;99.90;;;;;;5032573;28;20033;-60
2023/10/31 01:19:11;;;;;;;8.23;4.63;;;6.70;99.90;;;;;;5032681;28;20421;-60
2023/10/31 01:21:36;;;;;;;7.90;4.13;;;6.70;99.90;;;;;;5032346;28;20033;-60
2023/10/31 01:24:02;;;;;;;11.05;4.68;;;6.70;99.90;;;;;;5032194;28;20104;-61
2023/10/31 01:26:28;;;;;;;9.07;4.60;;;6.70;99.90;;;;;;5032070;28;20037;-62
2023/10/31 01:28:53;;;;;;;9.00;4.68;;;6.70;99.90;;;;;;5032179;28;20026;-62
2023/10/31 01:31:19;;;;;;;10.50;4.88;;;6.70;99.90;;;;;;5031924;28;20026;-62
2023/10/31 01:33:45;;;;;;;9.75;4.22;;;6.70;99.90;;;;;;5031693;28;20443;-62
2023/10/31 01:36:12;;;;;;;10.18;4.75;;;6.60;99.90;;;;;;5032431;28;20030;-62
2023/10/31 01:38:38;;;;;;;10.70;4.75;;;6.60;99.90;;;;;;5031178;28;20108;-61
2023/10/31 01:41:04;;;;;;;10.10;4.50;;;6.60;99.90;;;;;;5032333;28;20033;-61
2023/10/31 01:43:34;;;;;;;7.38;3.45;;;6.60;99.90;;;;;;5032064;28;20036;-62
2023/10/31 01:46:00;;;;;;;6.55;3.13;;;6.60;99.90;;;;;;5031617;28;20029;-60
2023/10/31 01:48:29;;;;;;;5.95;3.03;;;6.60;99.90;;;;;;5031917;28;20029;-60
2023/10/31 01:50:55;;;;;;;3.28;2.17;;;6.70;99.90;;;;;;5031709;28;20044;-60
2023/10/31 01:53:21;;;;;;;4.00;2.03;;;6.70;99.90;;;;;;5031998;28;20021;-60
2023/10/31 01:55:47;;;;;;;4.50;2.10;;;6.80;99.90;;;;;;5031603;28;20025;-60
2023/10/31 01:58:14;;;;;;;4.00;1.85;;;6.80;99.90;;;;;;5031822;28;20099;-61
2023/10/31 02:00:43;;;;;;;4.72;2.50;;;6.80;99.90;;;;;;5031465;28;20129;-61
2023/10/31 02:03:09;;;;;;;7.10;2.22;;;6.90;99.90;;;;;;5031344;28;20045;-62
2023/10/31 02:05:35;;;;;;;5.47;2.55;;;6.80;99.90;;;;;;5031691;28;20032;-59
2023/10/31 02:08:01;;;;;;;4.30;2.13;;;6.90;99.90;;;;;;5031363;28;20079;-59
2023/10/31 02:10:27;;;;;;;4.38;2.05;;;6.80;99.90;;;;;;5031131;28;20519;-60
2023/10/31 02:12:53;;;;;;;6.30;2.55;;;6.80;99.90;;;;;;5031432;28;20049;-60
2023/10/31 02:15:18;;;;;;;4.97;2.22;;;6.70;99.90;;;;;;5031261;28;20025;-60
2023/10/31 02:17:44;;;;;;;6.45;2.30;;;6.80;99.90;;;;;;5031217;28;20037;-62
2023/10/31 02:20:10;;;;;;;7.40;2.22;;;6.80;99.90;;;;;;5031135;28;20025;-60
2023/10/31 02:22:36;;;;;;;4.53;2.20;;;6.80;99.90;;;;;;5030880;28;20423;-60
2023/10/31 02:25:01;;;;;;;5.18;2.55;;;6.80;99.90;;;;;;5031014;28;20104;-60
2023/10/31 02:27:27;;;;;;;5.25;2.90;;;6.80;99.90;;;;;;5030971;28;20025;-61
2023/10/31 02:29:52;;;;;;;7.32;3.45;;;6.90;99.90;;;;;;5030779;28;20152;-61
2023/10/31 02:32:18;;;;;;;10.05;3.65;;;6.90;99.90;;;;;;5030859;28;20028;-60
2023/10/31 02:34:47;;;;;;;6.38;3.33;;;6.90;99.90;;;;;;5030635;28;20032;-60
2023/10/31 02:37:13;;;;;;;8.07;3.42;;;6.80;99.90;;;;;;5030573;28;20033;-60
2023/10/31 02:39:39;;;;;;;6.22;3.20;;;6.80;99.90;;;;;;5030300;28;20029;-60
2023/10/31 02:42:04;;;;;;;8.68;3.80;;;6.80;99.90;;;;;;5030233;28;20583;-60
2023/10/31 02:44:30;;;;;;;10.05;3.67;;;6.70;99.90;;;;;;5030658;28;20017;-61
2023/10/31 02:46:55;;;;;;;7.07;3.42;;;6.80;99.90;;;;;;5030797;28;20366;-61
2023/10/31 02:49:22;;;;;;;8.35;3.35;;;6.80;99.90;;;;;;5030034;28;20046;-61
2023/10/31 02:51:48;;;;;;;9.32;3.42;;;6.90;99.90;;;;;;5030501;28;20025;-61
2023/10/31 02:54:13;;;;;;;9.30;4.43;;;6.90;99.90;;;;;;5029904;28;20431;-62
2023/10/31 02:56:39;;;;;;;10.20;4.63;;;6.90;99.90;;;;;;5030496;28;20047;-60
2023/10/31 02:59:05;;;;;;;11.75;4.57;;;6.90;99.90;;;;;;5030228;28;20196;-59
2023/10/31 03:01:30;;;;;;;6.72;3.90;;;6.90;99.90;;;;;;5030389;28;20548;-59
2023/10/31 03:03:56;;;;;;;8.35;3.72;;;7.00;99.90;;;;;;5030451;28;20029;-61
2023/10/31 03:06:22;;;;;;;6.95;3.15;;;6.90;99.90;;;;;;5030233;28;20483;-62
2023/10/31 03:08:47;;;;;;;9.85;3.53;;;6.90;99.90;;;;;;5030487;28;20026;-60
2023/10/31 03:11:23;;;;;;;6.78;3.13;;;7.00;99.90;;;;;;5030277;28;22156;-61
2023/10/31 03:13:50;;;;;;;13.93;3.85;;;7.00;99.90;;;;;;5030314;28;20029;-63
2023/10/31 03:16:16;;;;;;;9.40;3.50;;;7.00;99.90;;;;;;5030357;28;20469;-60
2023/10/31 03:18:42;;;;;;;8.82;3.50;;;7.00;99.90;;;;;;5030453;28;20021;-61
2023/10/31 03:21:07;;;;;;;6.13;2.70;;;7.10;99.90;;;;;;5030269;28;20034;-60
2023/10/31 03:23:33;;;;;;;4.78;2.25;;;7.10;99.90;;;;;;5030378;28;20033;-62
2023/10/31 03:25:59;;;;;;;6.03;2.30;;;7.10;99.90;;;;;;5030292;28;20041;-61
2023/10/31 03:28:25;;;;;;;6.82;2.85;;;7.20;99.90;;;;;;5030043;28;20021;-62
2023/10/31 03:30:51;;;;;;;7.82;2.40;;;7.20;99.90;;;;;;5030270;28;20026;-61
2023/10/31 03:33:17;;;;;;;8.10;2.70;;;7.30;99.90;;;;;;5030136;28;20116;-61
2023/10/31 03:35:43;;;;;;;6.43;2.58;;;7.40;99.90;;;;;;5029334;28;20022;-60
2023/10/31 03:38:09;;;;;;;6.50;2.80;;;7.40;99.90;;;;;;5030298;28;20026;-61
2023/10/31 03:40:34;;;;;;;6.72;2.80;;;7.50;99.90;;;;;;5029881;28;20025;-62
2023/10/31 03:43:00;;;;;;;5.40;2.63;;;7.50;99.90;;;;;;5029983;28;20037;-60
2023/10/31 03:45:26;;;;;;;5.47;2.75;;;7.60;99.90;;;;;;5029374;28;20029;-62
2023/10/31 03:47:51;;;;;;;5.50;2.70;;;7.60;99.90;;;;;;5029429;28;20510;-59
2023/10/31 03:50:17;;;;;;;4.50;1.80;;;7.60;99.90;;;;;;5029529;28;20032;-60
2023/10/31 03:52:42;;;;;;;10.65;1.80;;;7.70;99.90;;;;;;5029303;28;20017;-62
2023/10/31 03:55:08;;;;;;;4.45;1.65;;;7.70;99.90;;;;;;5029667;28;20017;-61
2023/10/31 03:57:34;;;;;;;7.47;1.70;;;7.70;99.90;;;;;;5030081;28;20390;-61
2023/10/31 03:59:59;;;;;;;5.97;1.80;;;7.80;99.90;;;;;;5029449;28;20604;-60
2023/10/31 04:02:25;;;;;;;4.85;2.30;;;7.80;99.90;;;;;;5032882;28;20072;-60
2023/10/31 04:04:51;;;;;;;9.43;3.45;;;7.80;99.90;;;;;;5033738;28;20026;-62
2023/10/31 04:07:16;;;;;;;3.80;1.88;;;7.80;99.90;;;;;;5033226;28;20075;-61
2023/10/31 04:09:43;;;;;;;7.68;2.67;;;7.80;99.90;;;;;;5032982;28;20075;-60
2023/10/31 04:12:08;;;;;;;4.40;1.90;;;7.80;99.90;;;;;;5033534;28;20072;-60
2023/10/31 04:14:34;;;;;;;5.63;2.17;;;7.90;99.90;;;;;;5033094;28;20025;-59
2023/10/31 04:17:00;;;;;;;5.15;1.83;;;7.90;99.90;;;;;;5033494;28;20032;-61
2023/10/31 04:19:25;;;;;;;4.20;2.20;;;7.90;99.90;;;;;;5033270;28;20100;-59
2023/10/31 04:21:54;;;;;;;5.55;2.20;;;7.90;99.90;;;;;;5031404;28;20064;-59
2023/10/31 04:24:19;;;;;;;4.35;1.70;;;8.00;99.90;;;;;;5033229;28;20465;-60
2023/10/31 04:26:45;;;;;;;6.18;2.13;;;7.90;99.90;;;;;;5033296;28;20036;-60
2023/10/31 04:29:10;;;;;;;5.72;1.80;;;7.90;99.90;;;;;;5032970;28;20425;-62
2023/10/31 04:31:36;;;;;;;2.65;1.40;;;8.00;99.90;;;;;;5033355;28;20030;-59
2023/10/31 04:34:01;;;;;;;5.07;1.50;;;8.00;99.90;;;;;;5015380;28;20674;-59
2023/10/31 04:36:27;;;;;;;4.45;1.15;;;8.10;99.90;;;;;;5033308;28;20033;-59
2023/10/31 04:38:53;;;;;;;2.05;1.17;;;8.20;99.90;;;;;;5032912;28;20021;-59
2023/10/31 04:41:18;;;;;;;4.22;1.60;;;8.20;99.90;;;;;;5033032;28;20480;-59
2023/10/31 04:43:44;;;;;;;6.05;2.05;;;8.30;99.90;;;;;;5032824;28;20063;-59
2023/10/31 04:46:10;;;;;;;3.45;1.38;;;8.30;99.90;;;;;;5032833;28;20041;-60
2023/10/31 04:48:35;;;;;;;3.28;1.48;;;8.30;99.90;;;;;;5032978;28;20109;-60
2023/10/31 04:51:01;;;;;;;2.65;1.40;;;8.30;99.90;;;;;;5033002;28;20022;-59
2023/10/31 04:53:26;;;;;;;3.40;1.45;;;8.30;99.90;;;;;;5032999;28;20021;-59
2023/10/31 04:55:52;;;;;;;2.80;1.38;;;8.40;99.90;;;;;;5032782;28;20032;-59
2023/10/31 04:58:17;;;;;;;2.45;1.40;;;8.40;99.90;;;;;;5032869;28;20469;-59
2023/10/31 05:00:44;;;;;;;2.33;1.10;;;8.50;99.90;;;;;;5032820;28;20136;-59
2023/10/31 05:03:09;;;;;;;4.55;1.40;;;8.50;99.90;;;;;;5032624;28;20041;-56
2023/10/31 05:05:35;;;;;;;5.20;1.48;;;8.60;99.90;;;;;;5032958;28;20562;-58
2023/10/31 05:08:00;;;;;;;2.08;1.15;;;8.70;99.90;;;;;;5032420;28;20053;-59
2023/10/31 05:10:26;;;;;;;2.67;1.33;;;8.80;99.90;;;;;;5032788;28;20025;-59
2023/10/31 05:12:52;;;;;;;5.25;1.15;;;8.90;99.90;;;;;;5031495;28;20032;-58
2023/10/31 05:15:18;;;;;;;1.20;0.77;;;9.00;99.90;;;;;;5032262;28;20044;-58
2023/10/31 05:17:43;;;;;;;4.13;1.10;;;9.00;99.90;;;;;;5032391;28;20381;-59
2023/10/31 05:20:10;;;;;;;3.38;0.70;;;9.20;99.90;;;;;;5032246;28;20029;-58
2023/10/31 05:22:37;;;;;;;2.25;0.90;;;9.30;99.90;;;;;;5032092;28;20025;-59
2023/10/31 05:25:03;;;;;;;3.72;0.98;;;9.40;99.90;;;;;;5031970;28;20029;-63
2023/10/31 05:27:29;;;;;;;1.35;0.80;;;9.50;99.90;;;;;;5032516;28;20036;-58
2023/10/31 05:29:54;;;;;;;4.13;1.13;;;9.50;99.90;;;;;;5032137;28;20029;-57
2023/10/31 05:32:20;;;;;;;5.10;1.00;;;9.50;99.90;;;;;;5032247;28;20037;-59
2023/10/31 05:34:45;;;;;;;1.77;0.70;;;9.60;99.90;;;;;;5032205;28;20032;-59
2023/10/31 05:37:11;;;;;;;3.38;0.77;;;9.60;99.90;;;;;;5032094;28;20473;-58
2023/10/31 05:39:37;;;;;;;1.70;0.88;;;9.60;99.90;;;;;;5032106;28;20060;-59
2023/10/31 05:42:03;;;;;;;3.97;0.82;;;9.70;99.90;;;;;;5031952;28;20068;-59
2023/10/31 05:44:29;;;;;;;3.05;0.70;;;9.70;99.90;;;;;;5031691;28;20091;-60
2023/10/31 05:46:54;;;;;;;2.60;0.90;;;9.70;99.90;;;;;;5031922;28;20025;-58
2023/10/31 05:49:20;;;;;;;2.45;0.73;;;9.70;99.90;;;;;;5031442;28;20037;-60
2023/10/31 05:51:52;;;;;;;1.88;0.90;;;9.70;99.90;;;;;;5031640;28;20067;-58
2023/10/31 05:54:18;;;;;;;1.38;0.98;;;9.70;99.90;;;;;;5031800;28;20040;-59
2023/10/31 05:56:44;;;;;;;4.20;1.45;;;9.70;99.90;;;;;;5031321;28;20017;-59
2023/10/31 05:59:11;;;;;;;2.38;0.80;;;9.80;99.90;;;;;;5031581;28;20072;-58
2023/10/31 06:01:37;;;;;;;3.55;0.80;;;9.80;99.90;;;;;;5031719;28;20120;-59
2023/10/31 06:04:02;;;;;;;1.95;0.90;;;9.80;99.90;;;;;;5031691;28;20113;-60
2023/10/31 06:06:29;;;;;;;2.65;0.73;;;9.80;99.90;;;;;;5031213;28;20033;-58
2023/10/31 06:08:55;;;;;;;1.13;0.70;;;9.80;99.90;;;;;;5031647;28;20029;-59
2023/10/31 06:11:20;;;;;;;2.15;0.73;;;9.80;99.90;;;;;;5031172;28;20405;-59
2023/10/31 06:13:47;;;;;;;1.30;0.85;;;9.80;99.90;;;;;;5031464;28;20021;-62
2023/10/31 06:16:13;;;;;;;3.85;0.82;;;9.80;99.90;;;;;;5031239;28;20032;-58
2023/10/31 06:18:40;;;;;;;1.00;0.80;;;9.80;99.90;;;;;;5031254;28;20025;-58
2023/10/31 06:21:05;;;;;;;1.33;0.73;;;9.80;99.90;;;;;;5031195;28;20120;-60
2023/10/31 06:23:31;;;;;;;1.38;0.63;;;9.80;99.90;;;;;;5030439;28;20145;-60
2023/10/31 06:25:57;;;;;;;1.55;0.60;;;9.80;99.90;;;;;;5031090;28;20469;-60
2023/10/31 06:28:23;;;;;;;5.00;1.05;;;9.90;99.90;;;;;;5030615;28;20028;-58
2023/10/31 06:30:49;;;;;;;2.33;0.77;;;9.80;99.90;;;;;;5031098;28;20056;-58
2023/10/31 06:33:14;;;;;;;0.82;0.60;;;9.80;99.90;;;;;;5030541;28;20484;-59
2023/10/31 06:35:40;;;;;;;0.80;0.60;;;9.80;99.90;;;;;;5031112;28;20028;-61
2023/10/31 06:38:06;;;;;;;2.72;1.00;;;9.80;99.90;;;;;;5031127;28;20075;-59
2023/10/31 06:40:31;;;;;;;2.30;0.80;;;9.80;99.90;;;;;;5031071;28;20036;-59
2023/10/31 06:42:57;;;;;;;2.55;0.90;;;9.90;99.90;;;;;;5030871;28;20084;-59
2023/10/31 06:45:23;;;;;;;0.90;0.50;;;9.90;99.90;;;;;;5030953;28;20036;-59
2023/10/31 06:47:48;;;;;;;2.78;0.90;;;9.80;99.90;;;;;;5030896;28;20104;-61
2023/10/31 06:50:14;;;;;;;1.80;0.77;;;9.90;99.90;;;;;;5030656;28;20366;-61
2023/10/31 06:52:39;;;;;;;1.67;0.60;;;9.90;99.90;;;;;;5030930;28;20030;-59
2023/10/31 06:55:05;;;;;;;1.63;0.98;;;9.90;99.90;;;;;;5030597;28;20431;-59
2023/10/31 06:57:31;;;;;;;1.98;0.85;;;9.80;99.90;;;;;;5030739;28;20030;-58
2023/10/31 06:59:57;;;;;;;1.42;0.55;;;9.80;99.90;;;;;;5030653;28;20068;-61
2023/10/31 07:02:22;;;;;;;1.05;0.50;;;9.80;99.90;;;;;;5030534;28;20037;-61
2023/10/31 07:04:48;;;;;;;1.23;0.50;;;9.80;99.90;;;;;;5030609;28;20014;-59
2023/10/31 07:07:14;;;;;;;2.92;0.70;;;9.80;99.90;;;;;;5030361;28;20033;-59
2023/10/31 07:09:40;;;;;;;2.45;0.80;;;9.90;99.90;;;;;;5030641;28;20022;-60
2023/10/31 07:12:06;;;;;;;1.23;0.63;;;9.90;99.90;;;;;;5030561;28;20491;-61
2023/10/31 07:14:31;;;;;;;0.85;0.65;;;9.90;99.90;;;;;;5030457;28;20029;-59
2023/10/31 07:16:57;;;;;;;3.33;0.68;;;9.90;99.90;;;;;;5030531;28;20031;-58
2023/10/31 07:19:23;;;;;;;2.58;0.88;;;9.90;99.90;;;;;;5030315;28;20103;-58
2023/10/31 07:21:48;;;;;;;3.75;0.70;;;9.90;99.90;;;;;;5030406;28;20044;-59
2023/10/31 07:24:14;;;;;;;1.40;0.60;;;9.90;99.90;;;;;;5030152;28;20043;-59
2023/10/31 07:26:39;;;;;;;1.58;0.70;;;9.90;99.90;;;;;;5030400;28;20036;-58
2023/10/31 07:29:05;;;;;;;1.42;0.80;;;9.90;99.90;;;;;;5030295;28;20045;-61
2023/10/31 07:31:30;;;;;;;1.60;0.70;;;9.90;99.90;;;;;;5030291;28;20033;-61
2023/10/31 07:33:56;;;;;;;1.35;0.50;;;10.00;99.90;;;;;;5029983;28;20110;-60
2023/10/31 07:36:22;;;;;;;2.17;0.70;;;10.00;99.90;;;;;;5013297;28;20491;-59
2023/10/31 07:38:48;;;;;;;1.55;0.70;;;10.00;99.90;;;;;;5033351;28;20036;-60
2023/10/31 07:41:13;;;;;;;0.60;0.50;;;10.00;99.90;;;;;;5033567;28;20021;-61
2023/10/31 07:43:39;;;;;;;1.02;0.70;;;10.00;99.90;;;;;;5033965;28;20073;-60
2023/10/31 07:46:08;;;;;;;2.03;0.80;;;10.00;99.90;;;;;;5033244;28;20544;-59
2023/10/31 07:48:33;;;;;;;1.85;0.70;;;10.00;99.90;;;;;;5034049;28;20484;-58
2023/10/31 07:50:59;;;;;;;2.83;1.02;;;10.00;99.90;;;;;;5033727;28;20021;-61
2023/10/31 07:53:24;;;;;;;1.17;0.80;;;10.00;99.90;;;;;;5034171;28;20443;-60
2023/10/31 07:55:50;;;;;;;2.05;0.85;;;10.00;99.90;;;;;;5033562;28;20036;-60
2023/10/31 07:58:16;;;;;;;1.17;0.70;;;10.00;99.90;;;;;;5033616;28;20108;-60
2023/10/31 08:00:42;;;;;;;2.22;0.95;;;10.00;99.90;;;;;;5032545;28;20041;-60
2023/10/31 08:03:07;;;;;;;1.30;0.70;;;10.10;99.90;;;;;;5033288;28;20029;-60
2023/10/31 08:05:33;;;;;;;1.65;0.77;;;10.20;99.90;;;;;;5025060;28;20033;-59
2023/10/31 08:07:58;;;;;;;1.42;0.90;;;10.20;99.90;;;;;;5028404;28;20025;-60
2023/10/31 08:10:24;;;;;;;3.72;1.20;;;10.20;99.90;;;;;;5032287;28;20522;-59
2023/10/31 08:12:50;;;;;;;1.25;0.90;;;10.20;99.90;;;;;;5033100;28;20039;-60
2023/10/31 08:15:16;;;;;;;1.67;1.10;;;10.20;99.90;;;;;;5033615;28;20029;-59
2023/10/31 08:17:42;;;;;;;7.13;1.45;;;10.30;99.90;;;;;;5033327;28;20503;-60
2023/10/31 08:20:09;;;;;;;3.92;1.42;;;10.30;99.90;;;;;;5033117;28;20026;-59
2023/10/31 08:22:35;;;;;;;3.95;1.40;;;10.40;99.90;;;;;;5033499;28;20037;-54
2023/10/31 08:25:01;;;;;;;1.40;1.00;;;10.40;99.90;;;;;;5033284;28;20108;-60
2023/10/31 08:27:26;;;;;;;2.13;1.10;;;10.50;99.90;;;;;;5033195;28;20101;-60
2023/10/31 08:29:52;;;;;;;4.00;1.40;;;10.60;99.90;;;;;;5032859;28;20030;-59
2023/10/31 08:32:17;;;;;;;3.15;1.55;;;10.70;99.90;;;;;;5032935;28;20021;-60
2023/10/31 08:34:43;;;;;;;2.65;1.48;;;10.90;99.90;;;;;;5033503;28;20049;-59
2023/10/31 08:37:09;;;;;;;2.20;1.23;;;11.70;99.90;;;;;;5033511;28;20448;-59
2023/10/31 08:39:34;;;;;;;4.75;1.92;;;12.50;99.90;;;;;;5032580;28;20063;-62
2023/10/31 08:42:00;;;;;;;3.05;1.50;;;13.30;99.90;;;;;;5025911;28;20045;-61
2023/10/31 08:44:25;;;;;;;3.70;1.25;;;14.10;99.90;;;;;;5030733;28;20037;-67
2023/10/31 08:46:51;;;;;;;4.43;1.60;;;15.00;99.90;;;;;;5022973;28;20083;-47
2023/10/31 08:49:17;;;;;;;5.90;1.88;;;15.00;99.90;;;;;;5032149;28;20029;-49
2023/10/31 08:51:44;;;;;;;4.18;1.45;;;15.10;99.90;;;;;;5032261;28;20028;-56
2023/10/31 08:54:09;;;;;;;4.28;1.75;;;15.30;99.90;;;;;;5030494;28;20392;-50
2023/10/31 08:56:35;;;;;;;3.03;1.20;;;15.80;99.90;;;;;;5030584;28;20104;-59
2023/10/31 08:59:01;;;;;;;3.00;1.35;;;16.10;99.90;;;;;;5031981;28;20041;-59
2023/10/31 09:01:28;;;;;;;1.63;1.00;;;16.30;99.90;;;;;;5032092;28;20366;-59
2023/10/31 09:03:54;;;;;;;2.13;0.75;;;16.70;99.90;;;;;;5032326;28;20057;-63
2023/10/31 09:06:20;;;;;;;4.18;0.80;;;16.80;99.90;;;;;;5031735;28;20515;-63
2023/10/31 09:08:45;;;;;;;8.07;0.93;;;16.50;99.90;;;;;;5031539;28;20062;-64
2023/10/31 09:11:11;;;;;;;2.67;0.50;;;16.60;99.90;;;;;;5029755;28;20033;-56
2023/10/31 09:13:37;;;;;;;2.25;0.50;;;16.40;99.90;;;;;;5030590;28;20056;-64
2023/10/31 09:16:02;;;;;;;0.25;0.20;;;16.20;99.90;;;;;;5031297;28;20101;-63
2023/10/31 09:18:28;;;;;;;3.80;0.50;;;16.30;99.90;;;;;;5025155;28;20100;-63
2023/10/31 09:20:53;;;;;;;2.05;0.30;;;16.20;99.90;;;;;;5030636;28;20028;-64
2023/10/31 09:23:19;;;;;;;2.17;0.47;;;16.00;99.90;;;;;;5030376;28;20041;-62
2023/10/31 09:25:45;;;;;;;3.33;0.57;;;16.00;99.90;;;;;;5022969;28;20497;-64
2023/10/31 09:28:11;;;;;;;1.70;0.40;;;15.60;99.90;;;;;;5012625;28;20041;-63
2023/10/31 09:30:37;;;;;;;2.45;0.50;;;15.70;99.90;;;;;;5027340;28;20022;-63
2023/10/31 09:33:02;;;;;;;1.13;0.30;;;15.70;99.90;;;;;;5030782;28;20116;-63
2023/10/31 09:35:28;;;;;;;1.48;0.50;;;15.80;99.90;;;;;;5030922;28;20029;-63
2023/10/31 09:37:54;;;;;;;3.50;0.47;;;15.90;99.90;;;;;;5031255;28;20030;-63
2023/10/31 09:40:20;;;;;;;1.00;0.30;;;16.80;99.90;;;;;;5031726;28;20037;-64
2023/10/31 09:42:47;;;;;;;0.82;0.40;;;17.90;99.90;;;;;;5031470;28;20492;-63
2023/10/31 09:45:13;;;;;;;1.15;0.38;;;19.20;99.90;;;;;;5031692;28;20103;-63
2023/10/31 09:47:40;;;;;;;5.38;0.40;;;20.50;99.90;;;;;;5031883;28;20061;-64
2023/10/31 09:50:08;;;;;;;0.57;0.13;;;21.40;99.90;;;;;;5032272;28;20029;-63
2023/10/31 09:52:35;;;;;;;1.55;0.30;;;22.10;99.90;;;;;;5031815;28;20037;-63
2023/10/31 09:55:02;;;;;;;1.73;0.47;;;22.80;99.90;;;;;;5031651;28;20029;-63
2023/10/31 09:57:27;;;;;;;1.27;0.30;;;23.20;99.90;;;;;;5031492;28;20025;-63
2023/10/31 09:59:53;;;;;;;0.95;0.25;;;23.80;99.90;;;;;;5030955;28;20461;-63
2023/10/31 10:02:19;;;;;;;1.70;0.30;;;23.10;99.90;;;;;;5013963;28;20710;-63
2023/10/31 10:04:44;;;;;;;0.55;0.30;;;22.10;99.90;;;;;;5030822;28;20060;-63
2023/10/31 10:07:17;;;;;;;1.88;0.35;;;21.10;99.90;;;;;;5028833;28;20060;-63
2023/10/31 10:09:44;;;;;;;0.90;0.20;;;20.30;99.90;;;;;;5026063;28;20029;-63
2023/10/31 10:12:12;;;;;;;2.03;0.40;;;19.40;99.90;;;;;;5028086;28;20091;-63
2023/10/31 10:14:39;;;;;;;3.03;0.40;;;18.80;99.90;;;;;;5023133;28;20425;-64
2023/10/31 10:17:21;;;;;;;1.00;0.50;;;19.70;99.90;;;;;;5029461;28;20030;-63
2023/10/31 10:19:47;;;;;;;2.30;0.50;;;20.70;99.90;;;;;;5029707;28;20087;-62
2023/10/31 10:22:14;;;;;;;1.27;0.30;;;22.10;99.90;;;;;;5030303;28;20495;-64
2023/10/31 10:24:41;;;;;;;0.98;0.30;;;23.10;99.90;;;;;;5028183;28;20021;-63
2023/10/31 10:27:08;;;;;;;1.77;0.40;;;22.90;99.90;;;;;;5030776;28;20112;-63
2023/10/31 10:29:34;;;;;;;2.50;0.40;;;21.90;99.90;;;;;;5028251;28;20104;-64
2023/10/31 10:32:00;;;;;;;0.93;0.40;;;20.80;99.90;;;;;;5028684;28;20539;-63
2023/10/31 10:34:25;;;;;;;3.28;0.73;;;20.40;99.90;;;;;;5029306;28;20161;-63
2023/10/31 10:36:53;;;;;;;2.22;0.45;;;19.60;99.90;;;;;;5025126;28;20026;-64
2023/10/31 10:39:21;;;;;;;1.27;0.40;;;19.00;99.90;;;;;;5025918;28;20064;-59
2023/10/31 10:41:58;;;;;;;0.88;0.20;;;18.30;99.90;;;;;;5023807;28;20268;-62
2023/10/31 10:44:34;;;;;;;0.60;0.30;;;17.90;99.90;;;;;;5023505;28;20040;-62
2023/10/31 10:47:04;;;;;;;5.25;0.70;;;17.60;99.90;;;;;;5022006;28;20029;-62
2023/10/31 10:49:36;;;;;;;1.23;0.40;;;17.60;99.90;;;;;;5029584;28;20017;-61
2023/10/31 10:52:17;;;;;;;3.17;0.60;;;17.70;99.90;;;;;;5017627;28;20543;-60
2023/10/31 10:54:55;;;;;;;0.52;0.30;;;17.80;99.90;;;;;;5010295;28;20014;-60
2023/10/31 10:58:03;;;;;;;2.28;0.50;;;19.40;99.90;;;;;;5024772;28;20432;-60
2023/10/31 11:00:29;;;;;;;2.58;0.73;;;21.40;99.90;;;;;;4999724;28;20088;-60
2023/10/31 11:02:56;;;;;;;1.88;0.50;;;22.70;99.90;;;;;;5016784;28;20038;-61
2023/10/31 11:05:24;;;;;;;1.00;0.30;;;24.20;99.90;;;;;;5026696;28;20026;-60
2023/10/31 11:07:51;;;;;;;1.10;0.40;;;24.60;99.90;;;;;;5017958;28;20033;-60
2023/10/31 11:10:17;;;;;;;1.75;0.25;;;24.90;99.90;;;;;;5028707;28;20476;-57
2023/10/31 11:12:43;;;;;;;2.05;0.45;;;24.70;99.90;;;;;;5028902;28;20021;-59
2023/10/31 11:15:11;;;;;;;0.43;0.30;;;25.10;99.90;;;;;;5027053;28;20083;-62
2023/10/31 11:17:40;;;;;;;1.08;0.28;;;24.70;99.90;;;;;;5029576;28;20340;-55
2023/10/31 11:20:09;;;;;;;2.15;0.57;;;22.90;99.90;;;;;;5019908;28;20018;-58
2023/10/31 11:22:42;;;;;;;;;;;21.30;99.90;;;;;;5029786;28;20045;-55
2023/10/31 11:25:17;;;;;;;3.47;0.65;;;20.00;99.90;;;;;;5028768;28;19916;-61
2023/10/31 11:27:43;;;;;;;1.63;0.40;;;19.20;99.90;;;;;;5027685;28;20493;-60
2023/10/31 11:30:23;;;;;;;1.05;0.30;;;18.90;99.90;;;;;;5027823;28;20068;-60
2023/10/31 11:32:52;;;;;;;2.67;0.68;;;19.00;99.90;;;;;;5029279;28;20021;-59
2023/10/31 11:35:19;;;;;;;4.95;0.43;;;19.10;99.90;;;;;;5027435;28;20127;-56
2023/10/31 11:37:48;;;;;;;3.58;0.50;;;18.70;99.90;;;;;;5029509;28;20030;-57
2023/10/31 11:40:18;;;;;;;7.65;0.63;;;18.30;99.90;;;;;;5014362;28;20034;-57
2023/10/31 11:42:50;;;;;;;;;;;17.70;99.90;;;;;;5029617;28;20048;-60
2023/10/31 11:45:36;;;;;;;1.95;0.45;;;17.40;99.90;;;;;;5025078;28;19992;-59
2023/10/31 11:48:01;;;;;;;3.88;0.80;;;17.20;99.90;;;;;;5019734;28;20072;-56
2023/10/31 11:50:27;;;;;;;2.17;0.40;;;17.10;99.90;;;;;;5013144;28;20030;-59
2023/10/31 11:53:13;;;;;;;3.85;0.70;;;17.10;99.90;;;;;;5022776;28;20013;-58
2023/10/31 11:55:46;;;;;;;4.55;0.77;;;16.90;99.90;;;;;;5028864;28;20033;-58
2023/10/31 11:58:16;;;;;;;2.78;0.40;;;16.50;99.90;;;;;;5017449;28;20042;-59
2023/10/31 12:00:42;;;;;;;2.20;0.50;;;16.30;99.90;;;;;;5015146;28;20136;-62
2023/10/31 12:03:07;;;;;;;2.90;0.55;;;16.20;99.90;;;;;;5028966;28;20120;-61
2023/10/31 12:05:33;;;;;;;0.68;0.40;;;16.00;99.90;;;;;;5025468;28;20021;-61
2023/10/31 12:07:59;;;;;;;2.20;0.50;;;15.60;99.90;;;;;;5026644;28;20037;-61
2023/10/31 12:10:29;;;;;;;1.33;0.40;;;15.50;99.90;;;;;;5024646;28;20715;-60
2023/10/31 12:12:56;;;;;;;1.00;0.55;;;15.30;99.90;;;;;;5022785;28;20036;-60
2023/10/31 12:15:22;;;;;;;2.67;0.73;;;15.20;99.90;;;;;;5028111;28;20021;-61
2023/10/31 12:17:48;;;;;;;2.72;0.43;;;16.20;99.90;;;;;;5027089;28;20059;-60
2023/10/31 12:20:15;;;;;;;4.25;0.52;;;16.70;99.90;;;;;;5028578;28;20030;-60
2023/10/31 12:22:41;;;;;;;1.02;0.38;;;16.50;99.90;;;;;;5029317;28;20044;-57
2023/10/31 12:25:08;;;;;;;3.03;0.40;;;16.70;99.90;;;;;;5029413;28;20106;-62
2023/10/31 12:27:44;;;;;;;1.33;0.30;;;17.80;99.90;;;;;;5029033;28;20028;-59
2023/10/31 12:30:11;;;;;;;0.95;0.40;;;18.50;99.90;;;;;;5032547;28;20112;-58
2023/10/31 12:32:37;;;;;;;1.00;0.28;;;18.20;99.90;;;;;;5031725;28;20025;-60
2023/10/31 12:35:03;;;;;;;8.70;0.55;;;17.50;99.90;;;;;;5031989;28;20033;-60
2023/10/31 12:37:29;;;;;;;0.75;0.20;;;16.80;99.90;;;;;;5033205;28;20037;-60
2023/10/31 12:39:57;;;;;;;0.30;0.20;;;16.20;99.90;;;;;;5032818;28;20030;-54
2023/10/31 12:42:29;;;;;;;6.63;0.43;;;15.70;99.90;;;;;;5032447;28;20029;-61
2023/10/31 12:44:55;;;;;;;1.85;0.47;;;15.40;99.90;;;;;;5030216;28;20079;-65
2023/10/31 12:47:23;;;;;;;3.25;0.50;;;15.00;99.90;;;;;;5032333;28;20044;-65
2023/10/31 12:50:09;;;;;;;1.47;0.47;;;14.70;99.90;;;;;;5032893;28;20052;-65